Time;durP1;ratioP1;P1;durP2;ratioP2;P2;SDS_P1;SDS_P2;PMS_P1;PMS_P2;Temp;Humidity;BMP_temperature;BMP_pressure;BME280_temperature;BME280_humidity;BME280_pressure;Samples;Min_cycle;Max_cycle;Signal;HPM_P1;HPM_P2
2022/09/02 00:01:45;;;;;;;1.85;1.23;;;16.20;99.90;;;;;;5033582;28;20502;-71
2022/09/02 00:04:19;;;;;;;3.17;1.35;;;17.80;99.90;;;;;;5032989;28;20051;-71
2022/09/02 00:06:46;;;;;;;1.65;1.10;;;16.00;99.90;;;;;;5033267;28;20041;-71
2022/09/02 00:09:15;;;;;;;4.13;1.30;;;16.20;99.90;;;;;;5034657;28;20049;-72
2022/09/02 00:11:42;;;;;;;2.28;0.93;;;16.30;99.90;;;;;;5034762;28;20037;-72
2022/09/02 00:14:12;;;;;;;4.95;1.20;;;16.10;99.90;;;;;;5032868;28;20504;-71
2022/09/02 00:16:40;;;;;;;2.67;1.00;;;15.90;99.90;;;;;;5033130;28;20044;-71
2022/09/02 00:19:06;;;;;;;3.55;1.30;;;16.20;99.90;;;;;;5033026;28;20041;-72
2022/09/02 00:21:34;;;;;;;2.08;1.25;;;16.00;99.90;;;;;;5034196;28;20115;-72
2022/09/02 00:24:01;;;;;;;5.03;1.17;;;15.90;99.90;;;;;;5034072;28;20037;-71
2022/09/02 00:26:27;;;;;;;1.35;1.02;;;16.30;99.90;;;;;;5016725;28;20033;-72
2022/09/02 00:28:53;;;;;;;4.88;1.20;;;16.00;99.90;;;;;;5032877;28;20052;-70
2022/09/02 00:31:19;;;;;;;2.78;1.00;;;16.00;99.90;;;;;;5034144;28;20084;-72
2022/09/02 00:33:45;;;;;;;3.20;1.00;;;16.00;99.90;;;;;;5032619;28;20044;-71
2022/09/02 00:36:11;;;;;;;1.88;1.00;;;16.10;99.90;;;;;;5033741;28;20030;-71
2022/09/02 00:38:38;;;;;;;1.02;0.95;;;15.90;99.90;;;;;;5034104;28;20040;-71
2022/09/02 00:41:07;;;;;;;4.13;1.17;;;16.40;99.90;;;;;;5033939;28;20073;-71
2022/09/02 00:43:39;;;;;;;3.30;1.25;;;15.90;99.90;;;;;;5033747;28;20037;-71
2022/09/02 00:46:05;;;;;;;3.05;1.10;;;16.30;99.90;;;;;;5032119;28;20041;-71
2022/09/02 00:48:31;;;;;;;2.03;1.30;;;15.80;99.90;;;;;;5032875;28;20037;-72
2022/09/02 00:50:57;;;;;;;2.58;1.20;;;17.30;99.90;;;;;;5015547;28;20054;-72
2022/09/02 00:53:24;;;;;;;1.85;1.63;;;15.50;99.90;;;;;;5032553;28;20041;-72
2022/09/02 00:55:50;;;;;;;2.03;0.98;;;15.50;99.90;;;;;;5015502;28;20041;-72
2022/09/02 00:58:24;;;;;;;6.05;1.52;;;15.80;99.90;;;;;;5032276;28;20038;-72
2022/09/02 01:00:55;;;;;;;1.88;1.02;;;15.60;99.90;;;;;;5032423;28;20045;-72
2022/09/02 01:03:21;;;;;;;2.50;1.42;;;15.50;99.90;;;;;;5015666;28;20041;-71
2022/09/02 01:05:49;;;;;;;2.13;1.13;;;16.40;99.90;;;;;;5033023;28;20049;-72
2022/09/02 01:08:19;;;;;;;4.97;1.77;;;15.60;99.90;;;;;;5032390;28;20491;-71
2022/09/02 01:10:46;;;;;;;1.70;1.10;;;15.50;99.90;;;;;;5033351;28;20072;-72
2022/09/02 01:13:15;;;;;;;3.70;1.27;;;15.50;99.90;;;;;;5032278;28;20037;-72
2022/09/02 01:15:46;;;;;;;2.67;1.85;;;15.50;99.90;;;;;;5033077;28;20040;-72
2022/09/02 01:18:22;;;;;;;1.88;1.20;;;16.60;99.90;;;;;;5031946;28;20116;-72
2022/09/02 01:20:47;;;;;;;2.22;1.10;;;16.80;99.90;;;;;;5033277;28;20042;-72
2022/09/02 01:23:15;;;;;;;3.33;1.25;;;15.30;99.90;;;;;;5015569;28;20041;-71
2022/09/02 01:25:42;;;;;;;2.22;1.25;;;15.40;99.90;;;;;;5031475;28;20041;-71
2022/09/02 01:28:11;;;;;;;1.23;1.00;;;15.40;99.90;;;;;;5033114;28;20099;-72
2022/09/02 01:30:41;;;;;;;2.78;1.17;;;16.30;99.90;;;;;;5032841;28;20477;-72
2022/09/02 01:33:07;;;;;;;3.97;1.25;;;15.50;99.90;;;;;;5032928;28;20041;-71
2022/09/02 01:35:33;;;;;;;3.72;1.33;;;15.30;99.90;;;;;;5031354;28;20069;-72
2022/09/02 01:38:00;;;;;;;2.65;1.20;;;15.90;99.90;;;;;;5031593;28;20076;-72
2022/09/02 01:40:28;;;;;;;3.58;1.42;;;15.20;99.90;;;;;;5032903;28;20483;-71
2022/09/02 01:42:57;;;;;;;5.72;1.23;;;16.30;99.90;;;;;;5031758;28;20037;-71
2022/09/02 01:45:23;;;;;;;2.35;1.20;;;15.30;99.90;;;;;;5031036;28;20179;-71
2022/09/02 01:47:49;;;;;;;2.75;1.33;;;17.10;99.90;;;;;;5032909;28;20100;-71
2022/09/02 01:50:15;;;;;;;3.25;1.55;;;15.20;99.90;;;;;;5031505;28;20531;-71
2022/09/02 01:52:40;;;;;;;2.80;1.40;;;15.00;99.90;;;;;;5014683;28;20037;-72
2022/09/02 01:55:08;;;;;;;1.55;1.02;;;15.00;99.90;;;;;;5031158;28;20041;-71
2022/09/02 01:57:34;;;;;;;1.35;1.08;;;15.30;99.90;;;;;;5032497;28;20030;-71
2022/09/02 02:00:03;;;;;;;2.05;1.45;;;15.10;99.90;;;;;;5014696;28;20091;-71
2022/09/02 02:02:28;;;;;;;1.20;1.10;;;15.10;99.90;;;;;;5014097;28;20511;-71
2022/09/02 02:04:54;;;;;;;2.90;1.30;;;15.20;99.90;;;;;;5031006;28;20084;-71
2022/09/02 02:07:21;;;;;;;5.32;1.10;;;15.00;99.90;;;;;;5014423;28;20129;-72
2022/09/02 02:09:47;;;;;;;2.05;1.10;;;14.90;99.90;;;;;;5014623;28;20057;-71
2022/09/02 02:12:14;;;;;;;2.72;1.42;;;14.90;99.90;;;;;;5032081;28;20033;-71
2022/09/02 02:14:39;;;;;;;3.92;1.42;;;14.90;99.90;;;;;;5030582;28;20037;-72
2022/09/02 02:17:05;;;;;;;2.22;1.23;;;15.10;99.90;;;;;;5031049;28;20513;-71
2022/09/02 02:19:31;;;;;;;3.83;1.20;;;14.90;99.90;;;;;;5030833;28;20052;-71
2022/09/02 02:21:57;;;;;;;2.63;1.10;;;15.20;99.90;;;;;;5030728;28;20033;-71
2022/09/02 02:24:22;;;;;;;1.70;1.05;;;15.70;99.90;;;;;;5030291;28;20036;-72
2022/09/02 02:26:48;;;;;;;5.65;1.50;;;14.90;99.90;;;;;;5030641;28;20073;-71
2022/09/02 02:29:14;;;;;;;1.48;1.17;;;14.80;99.90;;;;;;5030755;28;20041;-71
2022/09/02 02:31:41;;;;;;;3.60;1.40;;;14.70;99.90;;;;;;5030547;28;20049;-71
2022/09/02 02:34:07;;;;;;;2.28;1.45;;;14.60;99.90;;;;;;5077730;22;20050;-72
2022/09/02 02:36:33;;;;;;;1.98;1.23;;;;;;;;;;5071201;28;20177;-72
2022/09/02 02:39:00;;;;;;;3.15;1.50;;;14.80;99.90;;;;;;5070819;28;20494;-72
2022/09/02 02:41:26;;;;;;;4.22;1.20;;;14.60;99.90;;;;;;5070928;28;20514;-72
2022/09/02 02:43:52;;;;;;;5.20;1.40;;;14.60;99.90;;;;;;5070344;28;20040;-71
2022/09/02 02:46:18;;;;;;;2.15;1.52;;;14.60;99.90;;;;;;5072126;28;20464;-72
2022/09/02 02:48:44;;;;;;;1.20;1.10;;;14.80;99.90;;;;;;5071904;28;20116;-72
2022/09/02 02:51:09;;;;;;;2.20;1.33;;;14.70;99.90;;;;;;5070631;28;20032;-72
2022/09/02 02:53:35;;;;;;;3.10;1.52;;;14.90;99.90;;;;;;5070319;28;20086;-72
2022/09/02 02:56:02;;;;;;;2.20;1.23;;;14.70;99.90;;;;;;5071773;28;20055;-72
2022/09/02 02:58:28;;;;;;;3.63;1.38;;;14.80;99.90;;;;;;5071865;28;20037;-72
2022/09/02 03:00:55;;;;;;;2.33;1.38;;;14.60;99.90;;;;;;5071909;28;20040;-72
2022/09/02 03:03:21;;;;;;;3.70;1.17;;;14.90;99.90;;;;;;5070394;28;20383;-72
2022/09/02 03:05:48;;;;;;;1.80;1.20;;;14.80;99.90;;;;;;5070241;28;20044;-72
2022/09/02 03:08:15;;;;;;;3.85;1.25;;;14.60;99.90;;;;;;5070191;28;20508;-72
2022/09/02 03:10:42;;;;;;;1.70;1.08;;;14.80;99.90;;;;;;5071795;28;20044;-72
2022/09/02 03:13:09;;;;;;;2.00;1.40;;;14.80;99.90;;;;;;5071238;28;20041;-72
2022/09/02 03:15:36;;;;;;;2.80;1.52;;;14.90;99.90;;;;;;5075673;28;20032;-72
2022/09/02 03:18:02;;;;;;;5.00;1.30;;;14.80;99.90;;;;;;5074804;28;20375;-72
2022/09/02 03:20:27;;;;;;;2.13;1.20;;;14.90;99.90;;;;;;5074363;28;20040;-72
2022/09/02 03:22:56;;;;;;;1.20;1.10;;;14.70;99.90;;;;;;5074547;28;20041;-72
2022/09/02 03:25:23;;;;;;;2.83;1.23;;;14.70;99.90;;;;;;5074050;28;20044;-72
2022/09/02 03:27:49;;;;;;;1.30;1.20;;;14.60;99.90;;;;;;5074591;28;20036;-72
2022/09/02 03:30:19;;;;;;;3.72;1.60;;;14.70;99.90;;;;;;5075532;28;20490;-72
2022/09/02 03:32:45;;;;;;;3.13;1.20;;;14.40;99.90;;;;;;5073981;28;20082;-72
2022/09/02 03:35:14;;;;;;;2.42;1.25;;;14.50;99.90;;;;;;5075018;28;20040;-72
2022/09/02 03:37:40;;;;;;;1.25;1.10;;;14.70;99.90;;;;;;5075363;28;20071;-72
2022/09/02 03:40:10;;;;;;;1.48;1.08;;;14.40;99.90;;;;;;5075258;28;20079;-72
2022/09/02 03:42:37;;;;;;;4.15;1.70;;;14.30;99.90;;;;;;5057512;28;20040;-72
2022/09/02 03:45:04;;;;;;;2.03;1.27;;;14.70;99.90;;;;;;5075140;28;20071;-72
2022/09/02 03:47:30;;;;;;;2.03;1.10;;;14.30;99.90;;;;;;5074042;28;20044;-72
2022/09/02 03:49:56;;;;;;;3.65;1.23;;;14.30;99.90;;;;;;5075586;28;20045;-72
2022/09/02 03:52:22;;;;;;;4.45;1.42;;;14.90;99.90;;;;;;5074003;28;20066;-72
2022/09/02 03:54:48;;;;;;;3.50;1.15;;;14.30;99.90;;;;;;5056940;28;20063;-72
2022/09/02 03:57:13;;;;;;;2.40;1.30;;;14.10;99.90;;;;;;5075097;28;20029;-72
2022/09/02 03:59:39;;;;;;;3.05;1.50;;;14.00;99.90;;;;;;5073655;28;20445;-72
2022/09/02 04:02:04;;;;;;;1.15;0.98;;;14.00;99.90;;;;;;5078917;28;20120;-72
2022/09/02 04:04:30;;;;;;;3.72;1.20;;;15.00;99.90;;;;;;5087689;28;20071;-72
2022/09/02 04:06:56;;;;;;;1.75;1.35;;;14.20;99.90;;;;;;5089124;28;20040;-72
2022/09/02 04:09:22;;;;;;;2.63;1.40;;;14.20;99.90;;;;;;5082158;28;20417;-72
2022/09/02 04:11:47;;;;;;;3.70;1.50;;;14.00;99.90;;;;;;5075928;28;20040;-72
2022/09/02 04:14:13;;;;;;;1.73;1.42;;;14.20;99.90;;;;;;5073294;28;20028;-72
2022/09/02 04:16:39;;;;;;;1.40;1.17;;;14.10;99.90;;;;;;5073318;28;20505;-72
2022/09/02 04:19:08;;;;;;;2.58;1.38;;;13.90;99.90;;;;;;5073295;28;20159;-72
2022/09/02 04:21:35;;;;;;;2.28;1.45;;;14.00;99.90;;;;;;5074609;28;20047;-72
2022/09/02 04:24:02;;;;;;;1.60;1.50;;;14.00;99.90;;;;;;5072844;28;20056;-72
2022/09/02 04:26:28;;;;;;;2.05;1.33;;;14.00;99.90;;;;;;5072630;28;20522;-71
2022/09/02 04:28:54;;;;;;;2.45;1.63;;;13.90;99.90;;;;;;5073145;28;20532;-72
2022/09/02 04:31:21;;;;;;;5.78;1.30;;;13.90;99.90;;;;;;5076624;28;20048;-72
2022/09/02 04:33:47;;;;;;;2.00;1.58;;;14.00;99.90;;;;;;5076011;28;20135;-71
2022/09/02 04:36:15;;;;;;;4.78;1.50;;;13.70;99.90;;;;;;5075477;28;20481;-72
2022/09/02 04:38:41;;;;;;;3.67;1.70;;;13.90;99.90;;;;;;5078051;28;20071;-71
2022/09/02 04:41:17;;;;;;;1.85;1.27;;;13.90;99.90;;;;;;5074275;28;20055;-72
2022/09/02 04:43:42;;;;;;;3.40;1.70;;;14.00;99.90;;;;;;5073051;28;20044;-72
2022/09/02 04:46:11;;;;;;;2.80;1.20;;;13.80;99.90;;;;;;5072588;28;20494;-71
2022/09/02 04:48:38;;;;;;;3.20;1.63;;;13.90;99.90;;;;;;5073099;28;20055;-71
2022/09/02 04:51:13;;;;;;;2.63;1.50;;;13.90;99.90;;;;;;5055938;28;20090;-72
2022/09/02 04:53:39;;;;;;;5.05;1.35;;;13.80;99.90;;;;;;5072616;28;20051;-72
2022/09/02 04:56:07;;;;;;;4.18;1.48;;;13.80;99.90;;;;;;5073694;28;20433;-72
2022/09/02 04:58:34;;;;;;;1.42;1.30;;;13.90;99.90;;;;;;5072885;28;20048;-72
2022/09/02 05:01:08;;;;;;;4.25;1.67;;;14.30;99.90;;;;;;5072621;28;20076;-72
2022/09/02 05:03:35;;;;;;;2.47;1.50;;;13.80;99.90;;;;;;5073893;28;20090;-72
2022/09/02 05:06:04;;;;;;;3.88;1.65;;;13.70;99.90;;;;;;5073498;28;20051;-72
2022/09/02 05:08:30;;;;;;;3.47;1.50;;;13.60;99.90;;;;;;5073830;28;20116;-72
2022/09/02 05:10:56;;;;;;;3.28;1.55;;;13.60;99.90;;;;;;5072227;28;20123;-72
2022/09/02 05:13:23;;;;;;;1.38;1.08;;;13.70;99.90;;;;;;5072475;28;20063;-72
2022/09/02 05:15:49;;;;;;;3.30;1.73;;;13.70;99.90;;;;;;5072019;28;20529;-72
2022/09/02 05:18:15;;;;;;;2.63;1.42;;;13.60;99.90;;;;;;5072269;28;20033;-72
2022/09/02 05:20:44;;;;;;;3.22;1.48;;;13.60;99.90;;;;;;5073689;28;20036;-72
2022/09/02 05:23:11;;;;;;;2.30;1.45;;;13.60;99.90;;;;;;5073459;28;20037;-72
2022/09/02 05:25:38;;;;;;;2.72;1.65;;;13.80;99.90;;;;;;5071948;28;20048;-72
2022/09/02 05:28:07;;;;;;;4.43;1.85;;;13.60;99.90;;;;;;5073483;28;20047;-72
2022/09/02 05:30:33;;;;;;;4.65;1.60;;;13.80;99.90;;;;;;5073305;28;20056;-72
2022/09/02 05:32:59;;;;;;;4.47;1.52;;;13.80;99.90;;;;;;5073059;28;20040;-72
2022/09/02 05:35:25;;;;;;;2.13;1.50;;;13.80;99.90;;;;;;5072948;28;20405;-72
2022/09/02 05:37:50;;;;;;;3.13;1.50;;;13.60;99.90;;;;;;5072150;28;20086;-72
2022/09/02 05:40:16;;;;;;;3.17;1.60;;;13.90;99.90;;;;;;5071850;28;20041;-72
2022/09/02 05:42:42;;;;;;;4.05;1.30;;;13.90;99.90;;;;;;5071580;28;20127;-72
2022/09/02 05:45:09;;;;;;;2.22;1.70;;;13.90;99.90;;;;;;5071360;28;20036;-72
2022/09/02 05:47:36;;;;;;;4.40;1.75;;;14.00;99.90;;;;;;5071501;28;20037;-72
2022/09/02 05:50:02;;;;;;;3.40;1.70;;;14.30;99.90;;;;;;5071450;28;20556;-72
2022/09/02 05:52:28;;;;;;;3.95;1.85;;;14.10;99.90;;;;;;5071452;28;20041;-72
2022/09/02 05:54:53;;;;;;;4.25;1.77;;;14.10;99.90;;;;;;5072314;28;20098;-72
2022/09/02 05:57:20;;;;;;;4.13;1.70;;;14.20;99.90;;;;;;5072847;28;20035;-72
2022/09/02 05:59:47;;;;;;;5.10;1.95;;;14.30;99.90;;;;;;5072432;28;20490;-71
2022/09/02 06:02:14;;;;;;;3.13;1.58;;;14.30;99.90;;;;;;5072661;28;20044;-71
2022/09/02 06:04:47;;;;;;;1.60;1.50;;;14.50;99.90;;;;;;5072235;28;20043;-71
2022/09/02 06:07:14;;;;;;;3.13;1.40;;;14.20;99.90;;;;;;5060271;28;20040;-71
2022/09/02 06:09:40;;;;;;;1.70;1.42;;;14.40;99.90;;;;;;5061358;28;20037;-71
2022/09/02 06:12:07;;;;;;;3.67;1.52;;;14.20;99.90;;;;;;5058757;28;20369;-71
2022/09/02 06:14:33;;;;;;;6.05;1.67;;;14.40;99.90;;;;;;5061758;28;20047;-72
2022/09/02 06:16:59;;;;;;;2.17;1.70;;;14.40;99.90;;;;;;5058971;28;20040;-71
2022/09/02 06:19:26;;;;;;;3.58;1.67;;;14.50;99.90;;;;;;5051770;28;20486;-71
2022/09/02 06:21:53;;;;;;;4.95;1.90;;;14.40;99.90;;;;;;5051739;28;20166;-71
2022/09/02 06:24:19;;;;;;;5.18;2.00;;;14.60;99.90;;;;;;5058345;28;20115;-71
2022/09/02 06:26:45;;;;;;;3.60;1.50;;;14.70;99.90;;;;;;5052598;28;20051;-70
2022/09/02 06:29:11;;;;;;;4.72;1.98;;;14.80;99.90;;;;;;5038878;28;20041;-71
2022/09/02 06:31:40;;;;;;;3.35;1.42;;;14.80;99.90;;;;;;5059070;28;20064;-71
2022/09/02 06:34:05;;;;;;;2.28;1.42;;;14.90;99.90;;;;;;5053406;28;20044;-72
2022/09/02 06:36:32;;;;;;;2.60;1.70;;;15.00;99.90;;;;;;5057972;28;20036;-72
2022/09/02 06:38:59;;;;;;;4.65;1.80;;;15.10;99.90;;;;;;5061137;28;20048;-71
2022/09/02 06:41:28;;;;;;;3.10;1.77;;;15.10;99.90;;;;;;5053183;28;20058;-72
2022/09/02 06:44:00;;;;;;;3.38;1.50;;;15.30;99.90;;;;;;5050725;28;20131;-71
2022/09/02 06:46:32;;;;;;;1.95;1.30;;;15.30;99.90;;;;;;5071652;28;20051;-72
2022/09/02 06:48:58;;;;;;;5.20;1.40;;;;;;;;;;5069423;28;20066;-72
2022/09/02 06:51:27;;;;;;;5.78;1.80;;;15.60;99.90;;;;;;5051458;28;20041;-72
2022/09/02 06:53:52;;;;;;;3.03;1.67;;;15.60;99.90;;;;;;5049181;28;20041;-71
2022/09/02 06:56:18;;;;;;;3.83;1.98;;;15.70;99.90;;;;;;5049554;28;20594;-72
2022/09/02 06:58:44;;;;;;;4.70;1.60;;;15.80;99.90;;;;;;5033682;28;20556;-72
2022/09/02 07:01:20;;;;;;;4.82;1.70;;;15.80;99.90;;;;;;5050798;28;20041;-71
2022/09/02 07:06:35;;;;;;;2.83;1.77;;;16.00;99.90;;;;;;5070234;28;21842;-72
2022/09/02 07:09:01;;;;;;;5.60;1.50;;;16.20;99.90;;;;;;5052889;28;20491;-72
2022/09/02 07:11:26;;;;;;;5.75;1.38;;;16.20;99.90;;;;;;5053169;28;20042;-73
2022/09/02 07:13:52;;;;;;;2.92;1.65;;;16.30;99.90;;;;;;5070581;28;20051;-72
2022/09/02 07:16:18;;;;;;;2.33;1.50;;;16.30;99.90;;;;;;5053996;28;20442;-72
2022/09/02 07:18:44;;;;;;;5.65;1.77;;;16.80;99.90;;;;;;5049552;28;20461;-71
2022/09/02 07:21:11;;;;;;;3.65;1.50;;;16.50;99.90;;;;;;5060161;28;20124;-72
2022/09/02 07:23:37;;;;;;;3.67;1.40;;;16.70;99.90;;;;;;5069046;28;20568;-71
2022/09/02 07:26:03;;;;;;;2.88;1.55;;;16.90;99.90;;;;;;5068402;28;20089;-71
2022/09/02 07:28:29;;;;;;;2.17;1.80;;;16.80;99.90;;;;;;5070453;28;20040;-71
2022/09/02 07:30:54;;;;;;;2.90;1.90;;;16.90;99.90;;;;;;5070896;28;20426;-72
2022/09/02 07:33:21;;;;;;;3.08;1.90;;;17.00;99.90;;;;;;5065847;28;20029;-72
2022/09/02 07:35:47;;;;;;;4.32;1.52;;;17.00;99.90;;;;;;5049532;28;20481;-71
2022/09/02 07:38:13;;;;;;;2.45;1.58;;;16.90;99.90;;;;;;5050840;28;20064;-71
2022/09/02 07:40:41;;;;;;;4.80;1.38;;;17.30;99.90;;;;;;5060705;28;20108;-72
2022/09/02 07:43:09;;;;;;;3.95;1.58;;;17.60;99.90;;;;;;5061662;28;20041;-72
2022/09/02 07:45:36;;;;;;;4.03;1.20;;;17.60;99.90;;;;;;5063671;28;20486;-72
2022/09/02 07:48:06;;;;;;;2.45;1.77;;;17.70;99.90;;;;;;5071829;28;20040;-72
2022/09/02 07:50:34;;;;;;;4.28;1.55;;;17.70;99.90;;;;;;5069709;28;20102;-72
2022/09/02 07:53:03;;;;;;;2.63;1.60;;;18.00;99.90;;;;;;5069056;28;20044;-72
2022/09/02 07:55:29;;;;;;;7.68;2.15;;;18.50;99.90;;;;;;5070834;28;20500;-73
2022/09/02 07:57:55;;;;;;;1.75;1.25;;;18.40;99.90;;;;;;5071422;28;20409;-72
2022/09/02 08:00:21;;;;;;;3.58;1.38;;;18.30;99.90;;;;;;5069908;28;20062;-72
2022/09/02 08:02:48;;;;;;;2.80;1.13;;;18.40;99.90;;;;;;5073575;28;20048;-72
2022/09/02 08:05:14;;;;;;;3.35;2.05;;;18.10;99.90;;;;;;5073563;28;20040;-72
2022/09/02 08:07:40;;;;;;;4.93;1.20;;;18.70;99.90;;;;;;5074747;28;20525;-72
2022/09/02 08:10:09;;;;;;;3.28;1.40;;;18.60;99.90;;;;;;5073472;28;20051;-72
2022/09/02 08:12:35;;;;;;;3.92;1.50;;;18.70;99.90;;;;;;5074853;28;20044;-73
2022/09/02 08:15:02;;;;;;;2.50;1.17;;;18.70;99.90;;;;;;5074485;28;20116;-72
2022/09/02 08:17:28;;;;;;;3.13;1.08;;;19.00;99.90;;;;;;5073333;28;20097;-72
2022/09/02 08:19:53;;;;;;;3.72;1.35;;;19.10;99.90;;;;;;5073314;28;20557;-72
2022/09/02 08:22:19;;;;;;;5.20;1.30;;;19.20;99.90;;;;;;5074437;28;20043;-72
2022/09/02 08:24:44;;;;;;;6.78;1.30;;;19.50;99.90;;;;;;5074072;28;20079;-72
2022/09/02 08:27:10;;;;;;;3.88;1.20;;;19.20;99.90;;;;;;5074674;28;20032;-72
2022/09/02 08:29:35;;;;;;;2.97;1.40;;;19.30;99.90;;;;;;5073399;28;20059;-72
2022/09/02 08:32:01;;;;;;;1.77;1.00;;;19.70;99.90;;;;;;5072988;28;20037;-73
2022/09/02 08:34:28;;;;;;;3.30;1.00;;;19.70;99.90;;;;;;5081344;22;20138;-75
2022/09/02 08:36:53;;;;;;;4.60;1.40;;;19.50;99.90;;;;;;5053907;28;20041;-74
2022/09/02 08:39:19;;;;;;;4.18;1.33;;;20.10;99.90;;;;;;5052571;28;20135;-74
2022/09/02 08:42:15;;;;;;;3.30;1.20;;;20.20;99.90;;;;;;5052706;28;20517;-75
2022/09/02 08:44:40;;;;;;;4.60;1.23;;;19.90;99.90;;;;;;5052052;28;20119;-75
2022/09/02 08:47:14;;;;;;;3.17;1.20;;;20.10;99.90;;;;;;5053718;28;20091;-75
2022/09/02 08:49:45;;;;;;;3.80;1.10;;;20.10;99.90;;;;;;5053006;28;20044;-74
2022/09/02 08:52:19;;;;;;;6.53;0.90;;;20.20;99.90;;;;;;5047879;28;20499;-74
2022/09/02 08:54:54;;;;;;;1.40;0.98;;;20.20;99.90;;;;;;5044488;28;20399;-74
2022/09/02 08:57:20;;;;;;;6.78;1.17;;;20.60;99.70;;;;;;5052945;28;20037;-74
2022/09/02 08:59:47;;;;;;;2.28;0.95;;;20.50;99.70;;;;;;5052009;28;20494;-73
2022/09/02 09:02:42;;;;;;;1.83;0.68;;;20.80;99.60;;;;;;5051651;28;20037;-73
2022/09/02 09:05:46;;;;;;;1.60;1.02;;;20.70;99.20;;;;;;5036014;28;20116;-74
2022/09/02 09:08:52;;;;;;;1.17;0.63;;;20.80;98.90;;;;;;5035823;28;20037;-74
2022/09/02 09:11:24;;;;;;;1.10;0.80;;;20.80;98.40;;;;;;5051985;28;20037;-74
2022/09/02 09:13:55;;;;;;;1.05;0.70;;;21.20;98.40;;;;;;5051651;28;20047;-73
2022/09/02 09:16:39;;;;;;;1.85;0.95;;;21.10;98.10;;;;;;5051859;28;20037;-74
2022/09/02 09:19:24;;;;;;;4.20;1.20;;;21.30;98.30;;;;;;5052372;28;20491;-74
2022/09/02 09:21:53;;;;;;;2.97;1.02;;;21.20;98.70;;;;;;5033444;28;20094;-73
2022/09/02 09:24:44;;;;;;;2.83;0.90;;;21.30;98.70;;;;;;5052759;28;20076;-73
2022/09/02 09:27:19;;;;;;;1.95;0.90;;;21.50;98.80;;;;;;5051478;28;20131;-73
2022/09/02 09:29:46;;;;;;;2.28;0.80;;;21.60;99.70;;;;;;5051963;28;20043;-73
2022/09/02 09:32:38;;;;;;;4.30;0.80;;;22.00;99.10;;;;;;5052990;28;20053;-73
2022/09/02 09:35:12;;;;;;;2.65;0.88;;;21.70;98.90;;;;;;5052651;28;20049;-73
2022/09/02 09:37:40;;;;;;;3.90;0.88;;;22.00;98.90;;;;;;5051677;28;20049;-73
2022/09/02 09:40:21;;;;;;;3.20;1.10;;;22.60;98.80;;;;;;5051467;28;20045;-74
2022/09/02 09:43:13;;;;;;;3.28;1.00;;;22.00;98.20;;;;;;5051307;28;20072;-73
2022/09/02 09:45:44;;;;;;;1.35;0.85;;;22.00;97.60;;;;;;5029645;28;20525;-74
2022/09/02 09:48:18;;;;;;;1.75;1.15;;;22.00;97.60;;;;;;5051047;28;20045;-74
2022/09/02 09:50:45;;;;;;;5.40;1.00;;;21.90;98.00;;;;;;5050658;28;20055;-74
2022/09/02 09:53:32;;;;;;;3.42;1.35;;;22.10;98.00;;;;;;5052502;28;20052;-73
2022/09/02 09:56:06;;;;;;;1.40;0.90;;;22.50;97.90;;;;;;5051632;28;20404;-74
2022/09/02 09:58:44;;;;;;;3.28;0.90;;;22.20;97.20;;;;;;5034374;28;20429;-73
2022/09/02 10:01:23;;;;;;;1.67;0.75;;;22.60;98.20;;;;;;5050948;28;20048;-73
2022/09/02 10:03:59;;;;;;;4.38;0.75;;;22.40;97.70;;;;;;5050827;28;20411;-73
2022/09/02 10:06:31;;;;;;;7.47;1.40;;;22.40;96.70;;;;;;5052054;28;20526;-73
2022/09/02 10:09:02;;;;;;;3.08;0.90;;;23.70;95.60;;;;;;5052301;28;20036;-73
2022/09/02 10:11:29;;;;;;;3.47;0.70;;;22.70;95.00;;;;;;5034185;28;20041;-73
2022/09/02 10:14:00;;;;;;;2.60;0.88;;;22.90;94.50;;;;;;5050460;28;20273;-73
2022/09/02 10:16:49;;;;;;;7.97;0.95;;;22.70;94.40;;;;;;5052096;28;20048;-73
2022/09/02 10:19:17;;;;;;;1.30;0.50;;;22.60;94.10;;;;;;5004341;28;20136;-74
2022/09/02 10:22:12;;;;;;;2.90;1.00;;;22.70;93.70;;;;;;5051810;28;20045;-73
2022/09/02 10:25:08;;;;;;;2.58;0.88;;;23.10;94.70;;;;;;5033396;28;20041;-73
2022/09/02 10:28:03;;;;;;;1.38;0.57;;;22.70;94.00;;;;;;5051655;28;20086;-73
2022/09/02 10:30:37;;;;;;;2.92;0.93;;;22.90;93.50;;;;;;5051621;28;20037;-74
2022/09/02 10:33:28;;;;;;;7.65;0.85;;;22.90;94.20;;;;;;5051591;28;20090;-73
2022/09/02 10:36:06;;;;;;;5.60;0.77;;;23.10;93.70;;;;;;5033463;28;20098;-74
2022/09/02 10:38:42;;;;;;;2.85;0.70;;;23.20;93.50;;;;;;5050344;28;20041;-74
2022/09/02 10:41:35;;;;;;;1.75;0.80;;;23.20;93.90;;;;;;5050419;28;20119;-73
2022/09/02 10:44:07;;;;;;;2.63;0.70;;;23.40;93.90;;;;;;5049594;28;20123;-74
2022/09/02 10:46:47;;;;;;;7.07;1.02;;;23.30;93.50;;;;;;5033292;28;20037;-74
2022/09/02 10:50:01;;;;;;;1.42;0.63;;;23.30;93.40;;;;;;5051514;28;20080;-74
2022/09/02 10:52:37;;;;;;;1.23;0.50;;;23.40;92.90;;;;;;5009391;28;20714;-73
2022/09/02 10:55:43;;;;;;;0.85;0.52;;;23.50;93.40;;;;;;4992700;28;20045;-73
2022/09/02 10:58:23;;;;;;;0.90;0.60;;;23.50;93.00;;;;;;4965400;28;20540;-73
2022/09/02 11:00:53;;;;;;;2.95;0.85;;;23.70;93.30;;;;;;5042727;28;20056;-74
2022/09/02 11:03:37;;;;;;;2.50;0.70;;;24.10;93.30;;;;;;5049902;28;20041;-74
2022/09/02 11:06:23;;;;;;;3.47;0.93;;;23.80;93.30;;;;;;5049857;28;20037;-74
2022/09/02 11:09:02;;;;;;;1.63;0.75;;;23.80;94.70;;;;;;5053297;28;20041;-74
2022/09/02 11:11:34;;;;;;;1.50;0.55;;;;;;;;;;5050316;28;20502;-74
2022/09/02 11:14:19;;;;;;;4.45;0.75;;;24.20;99.40;;;;;;5033039;28;20040;-74
2022/09/02 11:17:01;;;;;;;2.63;0.95;;;24.10;95.00;;;;;;5050823;28;20090;-74
2022/09/02 11:19:47;;;;;;;1.23;0.70;;;24.10;94.20;;;;;;5048275;28;20120;-73
2022/09/02 11:22:21;;;;;;;3.38;0.88;;;24.20;95.00;;;;;;5031678;28;20045;-74
2022/09/02 11:24:46;;;;;;;1.42;0.50;;;24.30;94.70;;;;;;5031001;28;20051;-74
2022/09/02 11:27:19;;;;;;;3.45;0.80;;;24.40;94.30;;;;;;5030343;28;20430;-74
2022/09/02 11:30:02;;;;;;;1.67;0.70;;;24.50;93.90;;;;;;5030064;28;20073;-73
2022/09/02 11:32:39;;;;;;;5.13;0.80;;;24.40;93.30;;;;;;5029987;28;20048;-74
2022/09/02 11:35:26;;;;;;;3.05;0.80;;;24.70;93.70;;;;;;5030619;28;20033;-74
2022/09/02 11:37:59;;;;;;;1.95;0.88;;;24.40;92.80;;;;;;5034047;28;20072;-74
2022/09/02 11:41:02;;;;;;;9.68;0.80;;;24.70;93.50;;;;;;5053607;28;20047;-74
2022/09/02 11:43:43;;;;;;;3.90;0.88;;;24.90;93.60;;;;;;5053614;28;20047;-73
2022/09/02 11:46:18;;;;;;;1.13;0.77;;;25.10;93.90;;;;;;5054725;28;20047;-74
2022/09/02 11:49:17;;;;;;;1.27;0.80;;;24.50;92.80;;;;;;5055449;28;20410;-74
2022/09/02 11:52:05;;;;;;;9.05;0.90;;;24.60;93.20;;;;;;5034533;28;20041;-74
2022/09/02 11:54:44;;;;;;;2.50;0.60;;;24.60;92.50;;;;;;5035574;28;20120;-74
2022/09/02 11:57:24;;;;;;;2.13;0.75;;;24.80;93.60;;;;;;5018103;28;20052;-74
2022/09/02 11:59:50;;;;;;;3.67;0.90;;;24.40;93.10;;;;;;5016992;28;20092;-74
2022/09/02 12:02:43;;;;;;;2.13;0.80;;;24.80;93.50;;;;;;5034934;28;20049;-74
2022/09/02 12:05:30;;;;;;;2.97;0.68;;;24.90;92.80;;;;;;5033027;28;20137;-74
2022/09/02 12:08:03;;;;;;;3.35;0.70;;;24.80;93.60;;;;;;5033279;28;20049;-73
2022/09/02 12:10:38;;;;;;;2.38;0.82;;;24.90;93.70;;;;;;5033373;28;20034;-74
2022/09/02 12:13:06;;;;;;;1.38;0.70;;;25.20;92.00;;;;;;5034740;28;20097;-74
2022/09/02 12:15:34;;;;;;;1.27;0.60;;;25.90;92.20;;;;;;5034487;28;20099;-74
2022/09/02 12:18:21;;;;;;;1.58;0.80;;;25.20;91.30;;;;;;5033282;28;20037;-74
2022/09/02 12:20:47;;;;;;;5.70;1.52;;;25.10;91.10;;;;;;5033319;28;20092;-73
2022/09/02 12:23:49;;;;;;;2.58;0.60;;;26.10;91.70;;;;;;5033196;28;20045;-73
2022/09/02 12:26:20;;;;;;;1.20;0.77;;;25.30;91.40;;;;;;5016494;28;20354;-74
2022/09/02 12:28:47;;;;;;;4.50;0.95;;;25.00;92.20;;;;;;5033167;28;20049;-74
2022/09/02 12:31:41;;;;;;;3.53;0.70;;;25.50;92.60;;;;;;5016275;28;20052;-74
2022/09/02 12:34:28;;;;;;;1.17;0.70;;;25.40;94.60;;;;;;5032327;28;20044;-74
2022/09/02 12:36:59;;;;;;;1.40;0.80;;;25.60;93.80;;;;;;5035737;28;20573;-75
2022/09/02 12:39:26;;;;;;;3.67;1.13;;;25.20;92.80;;;;;;5035913;28;20033;-74
2022/09/02 12:42:00;;;;;;;2.65;1.15;;;25.50;93.10;;;;;;5052467;28;20052;-74
2022/09/02 12:44:54;;;;;;;1.67;0.52;;;25.50;92.80;;;;;;5035731;28;20081;-74
2022/09/02 12:47:22;;;;;;;3.92;1.15;;;25.50;92.70;;;;;;5053276;28;20169;-74
2022/09/02 12:50:01;;;;;;;1.25;0.75;;;26.60;91.50;;;;;;5052330;28;20041;-74
2022/09/02 12:52:33;;;;;;;2.92;0.85;;;25.50;90.80;;;;;;5052167;28;20052;-74
2022/09/02 12:55:15;;;;;;;4.53;0.82;;;25.50;91.50;;;;;;5051917;28;20126;-74
2022/09/02 12:57:49;;;;;;;6.13;1.33;;;25.90;93.20;;;;;;5053694;28;20093;-74
2022/09/02 13:00:33;;;;;;;5.47;0.90;;;26.00;92.10;;;;;;5053413;28;20395;-73
2022/09/02 13:03:07;;;;;;;3.15;1.10;;;25.60;91.50;;;;;;5052124;28;20045;-74
2022/09/02 13:05:59;;;;;;;3.47;0.80;;;26.00;92.20;;;;;;5051949;28;20041;-74
2022/09/02 13:08:25;;;;;;;2.55;0.80;;;25.60;91.50;;;;;;5035592;28;20503;-73
2022/09/02 13:11:26;;;;;;;2.38;1.25;;;25.70;92.20;;;;;;5035379;28;20053;-74